Hlavní strana
METAR-TAF:

METAR-TAF

Letiště :

Winnsboro, Jižní Karolína, Spojené státy americké

zeměpisná šířka: 34-18-56N, zeměpisná délka: 081-06-32W, výška: 176 m

Aktuální stav počasí

Zpráva byla vytvořena před 13 minutami, v 17:15 UTC
Severoseverovýchodní vítr 9 kt s nárazy do 20 kt
Teplota 6°C
Vlhkost vzduchu 100%
Tlak 1020 hPa
Viditelnost: 16.1 km
Polojasno ve výšce 400 ft
Polojasno ve výšce 3300 ft
Zataženo ve výšce 10000 ft
slabý déšť

METAR: KFDW 151715Z AUTO 02009G20KT 10SM -RA SCT004 SCT033 OVC100 06/06 A3011 RMK AO1

Čas: 12:28 (17:28 UTC)


TAF: chybějící

Stav a předpovědi počasí z více než 4 000 letišť (zprávy METAR a TAF).

Červené a žluté tečky na mapě představují dostupné meteorologické stanice.

Když kurzor umístíte na tečku, zobrazí se název stanice.

Pak kliknutím zobrazíte stav a předpověď počasí.

Chcete-li změnit mapu, kliknutím na zelené tlačítko se znaménkem +mapu přiblížíte, kliknutím na zelené tlačítko se znaménkem – mapu oddálíte a kliknutím na zelené šipky přejdete na sousední mapy.


METAR-TAF: